sensor_id;sensor_type;location;lat;lon;timestamp;P1;durP1;ratioP1;P2;durP2;ratioP2
15614;SDS011;7907;51.368;6.730;2023-05-10T16:06:36;0.63;;;0.52;;
15614;SDS011;7907;51.368;6.730;2023-05-10T16:09:04;4.10;;;0.95;;
15614;SDS011;7907;51.368;6.730;2023-05-10T16:11:34;0.57;;;0.57;;
15614;SDS011;7907;51.368;6.730;2023-05-10T16:14:02;0.90;;;0.40;;
15614;SDS011;7907;51.368;6.730;2023-05-10T16:16:30;0.80;;;0.40;;
15614;SDS011;7907;51.368;6.730;2023-05-10T16:18:57;0.20;;;0.10;;
15614;SDS011;7907;51.368;6.730;2023-05-10T16:21:25;0.70;;;0.60;;
15614;SDS011;7907;51.368;6.730;2023-05-10T16:23:55;1.50;;;0.90;;
15614;SDS011;7907;51.368;6.730;2023-05-10T16:26:23;0.82;;;0.52;;
15614;SDS011;7907;51.368;6.730;2023-05-10T16:28:50;0.70;;;0.60;;
15614;SDS011;7907;51.368;6.730;2023-05-10T16:31:17;0.30;;;0.30;;
15614;SDS011;7907;51.368;6.730;2023-05-10T16:33:44;4.50;;;0.70;;
15614;SDS011;7907;51.368;6.730;2023-05-10T16:36:12;2.30;;;0.82;;
15614;SDS011;7907;51.368;6.730;2023-05-10T16:38:39;0.60;;;0.60;;
15614;SDS011;7907;51.368;6.730;2023-05-10T16:41:08;0.95;;;0.88;;
15614;SDS011;7907;51.368;6.730;2023-05-10T16:43:36;0.90;;;0.50;;
15614;SDS011;7907;51.368;6.730;2023-05-10T16:46:08;0.57;;;0.57;;
15614;SDS011;7907;51.368;6.730;2023-05-10T16:48:36;0.65;;;0.65;;
15614;SDS011;7907;51.368;6.730;2023-05-10T16:51:03;1.90;;;1.10;;
15614;SDS011;7907;51.368;6.730;2023-05-10T16:53:30;2.88;;;1.67;;
15614;SDS011;7907;51.368;6.730;2023-05-10T16:55:58;1.73;;;1.10;;
15614;SDS011;7907;51.368;6.730;2023-05-10T16:58:27;2.00;;;1.00;;
15614;SDS011;7907;51.368;6.730;2023-05-10T17:00:55;0.65;;;0.65;;
15614;SDS011;7907;51.368;6.730;2023-05-10T17:03:22;1.20;;;0.80;;
15614;SDS011;7907;51.368;6.730;2023-05-10T17:05:49;2.35;;;1.58;;
15614;SDS011;7907;51.368;6.730;2023-05-10T17:08:17;3.30;;;2.05;;
15614;SDS011;7907;51.368;6.730;2023-05-10T17:10:46;3.00;;;1.10;;
15614;SDS011;7907;51.368;6.730;2023-05-10T17:13:18;3.50;;;0.50;;
15614;SDS011;7907;51.368;6.730;2023-05-10T17:16:02;0.17;;;0.17;;
15614;SDS011;7907;51.368;6.730;2023-05-10T17:18:30;0.70;;;0.20;;
15614;SDS011;7907;51.368;6.730;2023-05-10T17:20:57;0.20;;;0.20;;
15614;SDS011;7907;51.368;6.730;2023-05-10T17:23:29;3.20;;;0.50;;
15614;SDS011;7907;51.368;6.730;2023-05-10T17:26:09;1.20;;;0.68;;
15614;SDS011;7907;51.368;6.730;2023-05-10T17:28:41;0.50;;;0.30;;
15614;SDS011;7907;51.368;6.730;2023-05-10T17:34:21;0.55;;;0.55;;
15614;SDS011;7907;51.368;6.730;2023-05-10T17:36:57;1.60;;;0.35;;
15614;SDS011;7907;51.368;6.730;2023-05-10T17:40:08;0.25;;;0.25;;
15614;SDS011;7907;51.368;6.730;2023-05-10T17:42:50;1.67;;;0.85;;
15614;SDS011;7907;51.368;6.730;2023-05-10T17:45:40;0.30;;;0.30;;
15614;SDS011;7907;51.368;6.730;2023-05-10T17:51:28;1.77;;;0.80;;
15614;SDS011;7907;51.368;6.730;2023-05-10T17:54:36;0.60;;;0.60;;
15614;SDS011;7907;51.368;6.730;2023-05-10T17:57:18;1.10;;;0.80;;
15614;SDS011;7907;51.368;6.730;2023-05-10T17:59:52;1.17;;;1.08;;
15614;SDS011;7907;51.368;6.730;2023-05-10T18:02:38;0.73;;;0.70;;
15614;SDS011;7907;51.368;6.730;2023-05-10T18:05:12;0.90;;;0.90;;
15614;SDS011;7907;51.368;6.730;2023-05-10T18:07:43;2.30;;;0.95;;
15614;SDS011;7907;51.368;6.730;2023-05-10T18:10:12;0.55;;;0.52;;
15614;SDS011;7907;51.368;6.730;2023-05-10T18:12:45;1.48;;;1.17;;
15614;SDS011;7907;51.368;6.730;2023-05-10T18:15:19;1.15;;;1.08;;
15614;SDS011;7907;51.368;6.730;2023-05-10T18:17:48;2.13;;;1.52;;
15614;SDS011;7907;51.368;6.730;2023-05-10T18:20:18;1.25;;;1.00;;
15614;SDS011;7907;51.368;6.730;2023-05-10T18:22:46;0.45;;;0.45;;
15614;SDS011;7907;51.368;6.730;2023-05-10T18:29:08;0.80;;;0.60;;
15614;SDS011;7907;51.368;6.730;2023-05-10T18:31:47;4.63;;;0.88;;
15614;SDS011;7907;51.368;6.730;2023-05-10T18:34:44;0.90;;;0.88;;
15614;SDS011;7907;51.368;6.730;2023-05-10T18:37:16;0.70;;;0.70;;
15614;SDS011;7907;51.368;6.730;2023-05-10T18:39:43;1.00;;;0.90;;
15614;SDS011;7907;51.368;6.730;2023-05-10T18:42:14;1.23;;;0.95;;
15614;SDS011;7907;51.368;6.730;2023-05-10T18:45:06;1.13;;;1.02;;
15614;SDS011;7907;51.368;6.730;2023-05-10T18:47:57;2.13;;;1.90;;
15614;SDS011;7907;51.368;6.730;2023-05-10T18:50:25;3.03;;;2.05;;
15614;SDS011;7907;51.368;6.730;2023-05-10T18:52:54;0.90;;;0.87;;
15614;SDS011;7907;51.368;6.730;2023-05-10T18:55:22;2.03;;;1.90;;
15614;SDS011;7907;51.368;6.730;2023-05-10T18:57:52;1.10;;;1.00;;
15614;SDS011;7907;51.368;6.730;2023-05-10T19:00:20;4.28;;;1.95;;
15614;SDS011;7907;51.368;6.730;2023-05-10T19:02:49;3.70;;;2.00;;
15614;SDS011;7907;51.368;6.730;2023-05-10T19:05:17;2.42;;;1.95;;
15614;SDS011;7907;51.368;6.730;2023-05-10T19:07:45;2.90;;;1.63;;
15614;SDS011;7907;51.368;6.730;2023-05-10T19:10:14;2.08;;;1.50;;
15614;SDS011;7907;51.368;6.730;2023-05-10T19:12:42;3.83;;;1.63;;
15614;SDS011;7907;51.368;6.730;2023-05-10T19:15:10;1.65;;;1.40;;
15614;SDS011;7907;51.368;6.730;2023-05-10T19:17:38;4.13;;;2.28;;
15614;SDS011;7907;51.368;6.730;2023-05-10T19:20:18;1.20;;;0.93;;
15614;SDS011;7907;51.368;6.730;2023-05-10T19:22:49;1.50;;;1.40;;
15614;SDS011;7907;51.368;6.730;2023-05-10T19:25:19;2.20;;;1.70;;
15614;SDS011;7907;51.368;6.730;2023-05-10T19:27:49;10.85;;;1.75;;
15614;SDS011;7907;51.368;6.730;2023-05-10T19:30:16;2.07;;;1.20;;
15614;SDS011;7907;51.368;6.730;2023-05-10T19:32:43;1.60;;;1.48;;
15614;SDS011;7907;51.368;6.730;2023-05-10T19:35:11;0.75;;;0.75;;
15614;SDS011;7907;51.368;6.730;2023-05-10T19:37:40;1.33;;;1.23;;
15614;SDS011;7907;51.368;6.730;2023-05-10T19:40:10;1.50;;;1.40;;
15614;SDS011;7907;51.368;6.730;2023-05-10T19:42:40;2.45;;;2.20;;
15614;SDS011;7907;51.368;6.730;2023-05-10T19:45:10;5.43;;;2.22;;
15614;SDS011;7907;51.368;6.730;2023-05-10T19:47:39;2.08;;;1.63;;
15614;SDS011;7907;51.368;6.730;2023-05-10T19:50:07;2.30;;;1.57;;
15614;SDS011;7907;51.368;6.730;2023-05-10T19:52:40;1.73;;;1.40;;
15614;SDS011;7907;51.368;6.730;2023-05-10T19:55:14;1.75;;;1.10;;
15614;SDS011;7907;51.368;6.730;2023-05-10T19:57:54;1.87;;;1.40;;
15614;SDS011;7907;51.368;6.730;2023-05-10T20:00:27;1.77;;;1.33;;
15614;SDS011;7907;51.368;6.730;2023-05-10T20:03:10;2.08;;;1.92;;
15614;SDS011;7907;51.368;6.730;2023-05-10T20:05:44;1.08;;;1.00;;
15614;SDS011;7907;51.368;6.730;2023-05-10T20:08:14;1.63;;;1.17;;
15614;SDS011;7907;51.368;6.730;2023-05-10T20:10:50;2.42;;;1.17;;
15614;SDS011;7907;51.368;6.730;2023-05-10T20:13:27;0.80;;;0.80;;
15614;SDS011;7907;51.368;6.730;2023-05-10T20:15:57;1.83;;;1.45;;
15614;SDS011;7907;51.368;6.730;2023-05-10T20:18:38;1.90;;;1.50;;
15614;SDS011;7907;51.368;6.730;2023-05-10T20:21:39;3.27;;;1.80;;
15614;SDS011;7907;51.368;6.730;2023-05-10T20:25:17;2.28;;;1.13;;
15614;SDS011;7907;51.368;6.730;2023-05-10T20:27:38;1.70;;;1.60;;
15614;SDS011;7907;51.368;6.730;2023-05-10T20:32:54;1.40;;;1.30;;
15614;SDS011;7907;51.368;6.730;2023-05-10T20:35:33;1.05;;;1.05;;
15614;SDS011;7907;51.368;6.730;2023-05-10T20:38:23;1.83;;;1.25;;
15614;SDS011;7907;51.368;6.730;2023-05-10T20:40:55;1.77;;;1.27;;
15614;SDS011;7907;51.368;6.730;2023-05-10T20:43:37;1.52;;;1.20;;
15614;SDS011;7907;51.368;6.730;2023-05-10T20:46:08;1.58;;;1.30;;
15614;SDS011;7907;51.368;6.730;2023-05-10T20:48:47;1.43;;;1.00;;
15614;SDS011;7907;51.368;6.730;2023-05-10T20:51:15;1.58;;;0.98;;
15614;SDS011;7907;51.368;6.730;2023-05-10T20:56:54;1.25;;;0.75;;
15614;SDS011;7907;51.368;6.730;2023-05-10T20:59:25;1.65;;;1.48;;
15614;SDS011;7907;51.368;6.730;2023-05-10T21:02:14;2.28;;;1.95;;
15614;SDS011;7907;51.368;6.730;2023-05-10T21:04:42;1.80;;;1.70;;
15614;SDS011;7907;51.368;6.730;2023-05-10T21:07:23;2.00;;;1.70;;
15614;SDS011;7907;51.368;6.730;2023-05-10T21:09:55;1.83;;;1.53;;
15614;SDS011;7907;51.368;6.730;2023-05-10T21:12:56;1.35;;;1.25;;
15614;SDS011;7907;51.368;6.730;2023-05-10T21:15:30;2.50;;;1.88;;
15614;SDS011;7907;51.368;6.730;2023-05-10T21:18:13;1.40;;;1.30;;
15614;SDS011;7907;51.368;6.730;2023-05-10T21:21:11;2.13;;;1.20;;
15614;SDS011;7907;51.368;6.730;2023-05-10T21:24:00;1.45;;;1.30;;
15614;SDS011;7907;51.368;6.730;2023-05-10T21:27:16;2.03;;;1.63;;
15614;SDS011;7907;51.368;6.730;2023-05-10T21:30:10;1.65;;;1.55;;
15614;SDS011;7907;51.368;6.730;2023-05-10T21:33:28;3.37;;;2.13;;
15614;SDS011;7907;51.368;6.730;2023-05-10T21:39:22;1.85;;;1.75;;
15614;SDS011;7907;51.368;6.730;2023-05-10T21:42:42;2.30;;;2.10;;
15614;SDS011;7907;51.368;6.730;2023-05-10T21:45:42;1.73;;;1.55;;
15614;SDS011;7907;51.368;6.730;2023-05-10T21:51:40;3.50;;;1.90;;
15614;SDS011;7907;51.368;6.730;2023-05-10T21:54:12;2.20;;;1.38;;
15614;SDS011;7907;51.368;6.730;2023-05-10T21:56:48;1.55;;;1.35;;
15614;SDS011;7907;51.368;6.730;2023-05-10T21:59:21;1.15;;;1.15;;
15614;SDS011;7907;51.368;6.730;2023-05-10T22:01:53;1.70;;;1.60;;
15614;SDS011;7907;51.368;6.730;2023-05-10T22:04:25;1.42;;;1.05;;
15614;SDS011;7907;51.368;6.730;2023-05-10T22:07:07;2.17;;;1.88;;
15614;SDS011;7907;51.368;6.730;2023-05-10T22:09:36;1.88;;;1.55;;
15614;SDS011;7907;51.368;6.730;2023-05-10T22:15:31;3.00;;;1.95;;
15614;SDS011;7907;51.368;6.730;2023-05-10T22:18:01;2.47;;;1.88;;
15614;SDS011;7907;51.368;6.730;2023-05-10T22:20:30;2.55;;;1.42;;
15614;SDS011;7907;51.368;6.730;2023-05-10T22:23:04;2.03;;;1.52;;
15614;SDS011;7907;51.368;6.730;2023-05-10T22:25:35;2.20;;;1.70;;
15614;SDS011;7907;51.368;6.730;2023-05-10T22:28:18;1.63;;;1.52;;
15614;SDS011;7907;51.368;6.730;2023-05-10T22:31:16;2.05;;;1.95;;
15614;SDS011;7907;51.368;6.730;2023-05-10T22:34:02;3.92;;;2.28;;
15614;SDS011;7907;51.368;6.730;2023-05-10T22:36:41;2.70;;;1.48;;
15614;SDS011;7907;51.368;6.730;2023-05-10T22:42:16;1.67;;;1.50;;
15614;SDS011;7907;51.368;6.730;2023-05-10T22:44:59;2.47;;;1.45;;
15614;SDS011;7907;51.368;6.730;2023-05-10T22:47:38;2.35;;;2.13;;
15614;SDS011;7907;51.368;6.730;2023-05-10T22:50:11;1.67;;;1.38;;
15614;SDS011;7907;51.368;6.730;2023-05-10T22:52:41;2.27;;;1.83;;
15614;SDS011;7907;51.368;6.730;2023-05-10T22:55:11;2.37;;;2.17;;
15614;SDS011;7907;51.368;6.730;2023-05-10T22:57:50;3.47;;;1.98;;
15614;SDS011;7907;51.368;6.730;2023-05-10T23:00:31;3.90;;;1.73;;
15614;SDS011;7907;51.368;6.730;2023-05-10T23:03:01;1.05;;;0.95;;
15614;SDS011;7907;51.368;6.730;2023-05-10T23:05:37;3.78;;;2.22;;
15614;SDS011;7907;51.368;6.730;2023-05-10T23:08:31;2.92;;;2.38;;
15614;SDS011;7907;51.368;6.730;2023-05-10T23:11:04;1.90;;;1.45;;
15614;SDS011;7907;51.368;6.730;2023-05-10T23:13:38;3.90;;;2.60;;
15614;SDS011;7907;51.368;6.730;2023-05-10T23:16:09;4.43;;;2.03;;
15614;SDS011;7907;51.368;6.730;2023-05-10T23:18:40;4.40;;;2.33;;
15614;SDS011;7907;51.368;6.730;2023-05-10T23:21:10;3.28;;;2.13;;
15614;SDS011;7907;51.368;6.730;2023-05-10T23:23:41;3.28;;;2.33;;
15614;SDS011;7907;51.368;6.730;2023-05-10T23:26:09;2.92;;;2.20;;
15614;SDS011;7907;51.368;6.730;2023-05-10T23:28:36;4.15;;;2.85;;
15614;SDS011;7907;51.368;6.730;2023-05-10T23:31:06;2.42;;;2.10;;
15614;SDS011;7907;51.368;6.730;2023-05-10T23:33:34;3.60;;;2.50;;
15614;SDS011;7907;51.368;6.730;2023-05-10T23:36:06;4.75;;;2.83;;
15614;SDS011;7907;51.368;6.730;2023-05-10T23:38:38;2.05;;;1.95;;
15614;SDS011;7907;51.368;6.730;2023-05-10T23:41:19;3.17;;;2.13;;
15614;SDS011;7907;51.368;6.730;2023-05-10T23:43:53;3.17;;;2.25;;
15614;SDS011;7907;51.368;6.730;2023-05-10T23:46:20;3.95;;;2.40;;
15614;SDS011;7907;51.368;6.730;2023-05-10T23:48:52;4.60;;;2.38;;
15614;SDS011;7907;51.368;6.730;2023-05-10T23:51:20;4.57;;;3.67;;
15614;SDS011;7907;51.368;6.730;2023-05-10T23:53:50;3.28;;;2.92;;
15614;SDS011;7907;51.368;6.730;2023-05-10T23:56:17;3.78;;;2.97;;
15614;SDS011;7907;51.368;6.730;2023-05-10T23:58:45;3.70;;;2.60;;
